sensor_id;sensor_type;location;lat;lon;timestamp;pressure;altitude;pressure_sealevel;temperature;humidity
36630;BME280;36256;42.154;23.002;2023-04-30T00:00:51;96913.41;;;11.99;96.22
36630;BME280;36256;42.154;23.002;2023-04-30T00:03:17;96898.56;;;11.90;96.42
36630;BME280;36256;42.154;23.002;2023-04-30T00:05:44;96906.09;;;11.83;97.76
36630;BME280;36256;42.154;23.002;2023-04-30T00:08:11;96904.53;;;11.82;97.63
36630;BME280;36256;42.154;23.002;2023-04-30T00:10:37;96899.97;;;11.85;97.33
36630;BME280;36256;42.154;23.002;2023-04-30T00:13:04;96906.69;;;11.88;97.51
36630;BME280;36256;42.154;23.002;2023-04-30T00:15:31;96911.53;;;11.87;97.66
36630;BME280;36256;42.154;23.002;2023-04-30T00:17:57;96897.78;;;11.89;98.89
36630;BME280;36256;42.154;23.002;2023-04-30T00:20:24;96903.38;;;11.98;98.87
36630;BME280;36256;42.154;23.002;2023-04-30T00:22:51;96907.16;;;11.95;96.76
36630;BME280;36256;42.154;23.002;2023-04-30T00:25:17;96908.41;;;11.94;96.41
36630;BME280;36256;42.154;23.002;2023-04-30T00:27:46;96911.81;;;11.98;96.62
36630;BME280;36256;42.154;23.002;2023-04-30T00:30:13;96912.91;;;12.01;98.04
36630;BME280;36256;42.154;23.002;2023-04-30T00:32:39;96912.78;;;11.95;99.54
36630;BME280;36256;42.154;23.002;2023-04-30T00:35:06;96921.22;;;11.86;99.58
36630;BME280;36256;42.154;23.002;2023-04-30T00:37:33;96922.78;;;11.87;99.46
36630;BME280;36256;42.154;23.002;2023-04-30T00:40:00;96916.22;;;11.81;100.00
36630;BME280;36256;42.154;23.002;2023-04-30T00:42:27;96916.53;;;11.83;99.71
36630;BME280;36256;42.154;23.002;2023-04-30T00:44:53;96915.00;;;11.73;100.00
36630;BME280;36256;42.154;23.002;2023-04-30T00:47:20;96920.00;;;11.78;98.65
36630;BME280;36256;42.154;23.002;2023-04-30T00:49:47;96915.94;;;11.79;98.69
36630;BME280;36256;42.154;23.002;2023-04-30T00:52:13;96914.22;;;11.81;98.52
36630;BME280;36256;42.154;23.002;2023-04-30T00:54:40;96917.63;;;11.76;99.22
36630;BME280;36256;42.154;23.002;2023-04-30T00:57:08;96916.88;;;11.76;99.29
36630;BME280;36256;42.154;23.002;2023-04-30T00:59:37;96921.56;;;11.79;98.82
36630;BME280;36256;42.154;23.002;2023-04-30T01:02:04;96921.56;;;11.79;98.16
36630;BME280;36256;42.154;23.002;2023-04-30T01:04:31;96898.28;;;11.60;99.51
36630;BME280;36256;42.154;23.002;2023-04-30T01:06:59;96920.75;;;11.78;98.17
36630;BME280;36256;42.154;23.002;2023-04-30T01:09:28;96925.00;;;11.74;98.09
36630;BME280;36256;42.154;23.002;2023-04-30T01:12:20;96919.09;;;11.72;98.93
36630;BME280;36256;42.154;23.002;2023-04-30T01:17:42;96906.41;;;11.58;100.00
36630;BME280;36256;42.154;23.002;2023-04-30T01:20:11;96909.53;;;11.60;100.00
36630;BME280;36256;42.154;23.002;2023-04-30T01:25:34;96909.69;;;11.75;100.00
36630;BME280;36256;42.154;23.002;2023-04-30T01:28:08;96905.78;;;11.72;100.00
36630;BME280;36256;42.154;23.002;2023-04-30T01:30:35;96905.66;;;11.67;100.00
36630;BME280;36256;42.154;23.002;2023-04-30T01:33:02;96889.72;;;11.55;100.00
36630;BME280;36256;42.154;23.002;2023-04-30T01:46:33;96905.31;;;11.65;100.00
36630;BME280;36256;42.154;23.002;2023-04-30T01:49:08;96913.59;;;11.59;100.00
36630;BME280;36256;42.154;23.002;2023-04-30T01:51:41;96905.00;;;11.54;100.00
36630;BME280;36256;42.154;23.002;2023-04-30T01:57:17;96893.00;;;11.35;100.00
36630;BME280;36256;42.154;23.002;2023-04-30T01:59:47;96877.56;;;11.22;100.00
36630;BME280;36256;42.154;23.002;2023-04-30T02:02:13;96880.34;;;11.22;100.00
36630;BME280;36256;42.154;23.002;2023-04-30T02:04:41;96892.38;;;11.13;100.00
36630;BME280;36256;42.154;23.002;2023-04-30T02:07:07;96891.91;;;11.05;100.00
36630;BME280;36256;42.154;23.002;2023-04-30T02:09:34;96873.81;;;10.97;100.00
36630;BME280;36256;42.154;23.002;2023-04-30T02:12:01;96889.56;;;11.04;100.00
36630;BME280;36256;42.154;23.002;2023-04-30T02:14:30;96895.81;;;10.99;100.00
36630;BME280;36256;42.154;23.002;2023-04-30T02:16:57;96890.78;;;10.94;100.00
36630;BME280;36256;42.154;23.002;2023-04-30T02:19:24;96892.53;;;10.91;100.00
36630;BME280;36256;42.154;23.002;2023-04-30T02:21:50;96884.41;;;10.84;100.00
36630;BME280;36256;42.154;23.002;2023-04-30T02:24:17;96904.22;;;10.81;100.00
36630;BME280;36256;42.154;23.002;2023-04-30T02:26:43;96894.41;;;10.85;100.00
36630;BME280;36256;42.154;23.002;2023-04-30T02:29:10;96889.38;;;10.71;100.00
36630;BME280;36256;42.154;23.002;2023-04-30T02:31:37;96895.28;;;10.64;100.00
36630;BME280;36256;42.154;23.002;2023-04-30T02:34:04;96893.41;;;10.61;100.00
36630;BME280;36256;42.154;23.002;2023-04-30T02:36:30;96901.00;;;10.43;100.00
36630;BME280;36256;42.154;23.002;2023-04-30T02:39:01;96901.13;;;10.39;100.00
36630;BME280;36256;42.154;23.002;2023-04-30T02:41:28;96899.41;;;10.42;100.00
36630;BME280;36256;42.154;23.002;2023-04-30T02:43:55;96895.50;;;10.39;100.00
36630;BME280;36256;42.154;23.002;2023-04-30T02:46:21;96897.09;;;10.40;100.00
36630;BME280;36256;42.154;23.002;2023-04-30T02:48:48;96907.38;;;10.43;100.00
36630;BME280;36256;42.154;23.002;2023-04-30T02:51:15;96903.31;;;10.44;100.00
36630;BME280;36256;42.154;23.002;2023-04-30T02:53:41;96891.00;;;10.42;100.00
36630;BME280;36256;42.154;23.002;2023-04-30T02:56:08;96897.09;;;10.40;100.00
36630;BME280;36256;42.154;23.002;2023-04-30T02:58:34;96905.81;;;10.42;100.00
36630;BME280;36256;42.154;23.002;2023-04-30T03:01:01;96904.91;;;10.45;100.00
36630;BME280;36256;42.154;23.002;2023-04-30T03:03:28;96908.94;;;10.44;100.00
36630;BME280;36256;42.154;23.002;2023-04-30T03:05:55;96907.69;;;10.45;100.00
36630;BME280;36256;42.154;23.002;2023-04-30T03:08:25;96904.91;;;10.45;100.00
36630;BME280;36256;42.154;23.002;2023-04-30T03:10:52;96907.06;;;10.50;100.00
36630;BME280;36256;42.154;23.002;2023-04-30T03:13:18;96913.16;;;10.49;100.00
36630;BME280;36256;42.154;23.002;2023-04-30T03:15:46;96909.25;;;10.46;100.00
36630;BME280;36256;42.154;23.002;2023-04-30T03:18:12;96900.69;;;10.50;100.00
36630;BME280;36256;42.154;23.002;2023-04-30T03:20:39;96915.81;;;10.52;100.00
36630;BME280;36256;42.154;23.002;2023-04-30T03:23:06;96912.72;;;10.59;100.00
36630;BME280;36256;42.154;23.002;2023-04-30T03:25:32;96909.44;;;10.61;100.00
36630;BME280;36256;42.154;23.002;2023-04-30T03:27:59;96912.72;;;10.59;100.00
36630;BME280;36256;42.154;23.002;2023-04-30T03:30:26;96920.50;;;10.55;100.00
36630;BME280;36256;42.154;23.002;2023-04-30T03:32:52;96922.38;;;10.49;100.00
36630;BME280;36256;42.154;23.002;2023-04-30T03:35:19;96913.13;;;10.40;100.00
36630;BME280;36256;42.154;23.002;2023-04-30T03:37:46;96915.59;;;10.38;100.00
36630;BME280;36256;42.154;23.002;2023-04-30T03:40:12;96928.25;;;10.42;100.00
36630;BME280;36256;42.154;23.002;2023-04-30T03:42:39;96920.94;;;10.45;100.00
36630;BME280;36256;42.154;23.002;2023-04-30T03:45:06;96917.94;;;10.39;100.00
36630;BME280;36256;42.154;23.002;2023-04-30T03:47:34;96904.22;;;10.32;100.00
36630;BME280;36256;42.154;23.002;2023-04-30T03:50:04;96926.03;;;10.37;100.00
36630;BME280;36256;42.154;23.002;2023-04-30T03:52:31;96931.31;;;10.35;100.00
36630;BME280;36256;42.154;23.002;2023-04-30T03:54:59;96896.66;;;10.11;100.00
36630;BME280;36256;42.154;23.002;2023-04-30T03:57:25;96932.59;;;10.34;100.00
36630;BME280;36256;42.154;23.002;2023-04-30T03:59:52;96941.00;;;10.34;100.00
36630;BME280;36256;42.154;23.002;2023-04-30T04:02:19;96941.16;;;10.31;100.00
36630;BME280;36256;42.154;23.002;2023-04-30T04:04:47;96946.28;;;10.32;100.00
36630;BME280;36256;42.154;23.002;2023-04-30T04:07:13;96951.91;;;10.32;100.00
36630;BME280;36256;42.154;23.002;2023-04-30T04:09:40;96951.91;;;10.32;100.00
36630;BME280;36256;42.154;23.002;2023-04-30T04:12:07;96953.31;;;10.37;100.00
36630;BME280;36256;42.154;23.002;2023-04-30T04:14:34;96950.00;;;10.29;100.00
36630;BME280;36256;42.154;23.002;2023-04-30T04:17:01;96941.88;;;10.22;100.00
36630;BME280;36256;42.154;23.002;2023-04-30T04:19:27;96960.94;;;10.36;100.00
36630;BME280;36256;42.154;23.002;2023-04-30T04:21:54;96966.59;;;10.45;100.00
36630;BME280;36256;42.154;23.002;2023-04-30T04:24:20;96969.59;;;10.51;100.00
36630;BME280;36256;42.154;23.002;2023-04-30T04:26:49;96965.41;;;10.55;100.00
36630;BME280;36256;42.154;23.002;2023-04-30T04:29:16;96972.44;;;10.60;100.00
36630;BME280;36256;42.154;23.002;2023-04-30T04:31:43;96971.16;;;10.61;100.00
36630;BME280;36256;42.154;23.002;2023-04-30T04:34:10;96968.25;;;10.64;100.00
36630;BME280;36256;42.154;23.002;2023-04-30T04:36:36;96969.94;;;10.71;100.00
36630;BME280;36256;42.154;23.002;2023-04-30T04:39:03;96963.28;;;10.77;100.00
36630;BME280;36256;42.154;23.002;2023-04-30T04:41:31;96963.31;;;10.86;100.00
36630;BME280;36256;42.154;23.002;2023-04-30T04:43:59;96964.72;;;10.91;100.00
36630;BME280;36256;42.154;23.002;2023-04-30T04:46:27;96958.63;;;10.92;100.00
36630;BME280;36256;42.154;23.002;2023-04-30T04:48:55;96977.72;;;11.07;100.00
36630;BME280;36256;42.154;23.002;2023-04-30T04:51:22;96976.78;;;11.10;100.00
36630;BME280;36256;42.154;23.002;2023-04-30T04:53:48;96980.53;;;11.07;100.00
